Terminal Aerodrome Forecast
Issued by NWS

Home | Current Version | Previous Version | Text Only | Print | Product List | Glossary On
Versions: 1 2 3 4 5 6 7 8 9 10 11 12 13 14
000
FTUS42 KTBW 220500
TAFLAL
TAF
KLAL 220534Z 2206/2306 VRB04KT P6SM SCT130 BKN250
     FM221400 VRB04KT P6SM SCT025 BKN250
     FM221700 VRB05KT P6SM VCTS BKN035CB BKN250
     FM230100 VRB03KT P6SM SCT035 BKN150
      AMD NOT SKED TIL 221200=

USA.gov is the U.S. government's official web portal to all federal, state and local government web resources and services.